Time,TemperatureF,DewpointF,PressureIn,WindDirection,WindDirectionDegrees,WindSpeedMPH,WindSpeedGustMPH,Humidity,HourlyPrecipIn,Conditions,Clouds,dailyrainin,SolarRadiationWatts/m^2,SoftwareType,DateUTC
2013-08-20 00:01:00,78.0,55.0,30.11,SE,126,5.0,11.0,44,-99.99,,,-99.99,0.000000,,2013-08-20 06:01:00,
2013-08-20 00:42:00,75.0,59.0,30.10,SE,142,3.0,6.0,56,-99.99,,,-99.99,0.000000,,2013-08-20 06:42:00,
2013-08-20 01:11:00,75.0,60.0,30.11,East,83,3.0,6.0,59,-99.99,,,-99.99,0.000000,,2013-08-20 07:11:00,
2013-08-20 01:42:00,73.0,61.0,30.13,WNW,294,7.0,11.0,64,-99.99,,,-99.99,0.000000,,2013-08-20 07:42:00,
2013-08-20 01:52:00,73.0,61.0,30.13,WNW,294,7.0,11.0,64,-99.99,,,-99.99,0.000000,,2013-08-20 07:52:00,
2013-08-20 02:11:00,74.0,59.0,30.11,NW,305,10.0,15.0,59,-99.99,,,-99.99,0.000000,,2013-08-20 08:11:00,
2013-08-20 02:21:00,74.0,59.0,30.11,NW,305,10.0,15.0,59,-99.99,,,-99.99,0.000000,,2013-08-20 08:21:00,
2013-08-20 02:42:00,75.0,56.0,30.09,WNW,288,14.0,20.0,52,-99.99,,,-99.99,0.000000,,2013-08-20 08:42:00,
2013-08-20 02:52:00,75.0,56.0,30.09,WNW,288,14.0,20.0,52,-99.99,,,-99.99,0.000000,,2013-08-20 08:52:00,
2013-08-20 03:01:00,75.0,56.0,30.09,WNW,288,14.0,20.0,52,-99.99,,,-99.99,0.000000,,2013-08-20 09:01:00,
2013-08-20 03:42:00,76.0,54.0,30.08,West,274,9.0,15.0,45,-99.99,,,-99.99,0.000000,,2013-08-20 09:42:00,
2013-08-20 04:42:00,75.0,56.0,30.08,NNW,335,7.0,15.0,52,-99.99,,,-99.99,0.000000,,2013-08-20 10:42:00,
2013-08-20 05:11:00,76.0,54.0,30.06,NW,317,8.0,16.0,48,-99.99,,,-99.99,0.000000,,2013-08-20 11:11:00,
2013-08-20 05:42:00,73.0,56.0,30.08,ESE,122,6.0,10.0,55,-99.99,,,-99.99,0.000000,,2013-08-20 11:42:00,
2013-08-20 05:52:00,73.0,56.0,30.08,ESE,122,6.0,10.0,55,-99.99,,,-99.99,0.000000,,2013-08-20 11:52:00,
2013-08-20 06:01:00,73.0,56.0,30.08,ESE,122,6.0,10.0,55,-99.99,,,-99.99,0.000000,,2013-08-20 12:01:00,
2013-08-20 06:42:00,69.0,58.0,30.09,WNW,287,4.0,6.0,67,-99.99,,,-99.99,0.000000,,2013-08-20 12:42:00,
2013-08-20 07:42:00,69.0,58.0,30.10,South,180,3.0,5.0,69,-99.99,,,-99.99,50.209999,,2013-08-20 13:42:00,
2013-08-20 07:52:00,69.0,58.0,30.10,South,180,3.0,5.0,69,-99.99,,,-99.99,50.209999,,2013-08-20 13:52:00,
2013-08-20 08:11:00,73.0,58.0,30.10,SSE,152,2.0,4.0,60,-99.99,,,-99.99,136.679993,,2013-08-20 14:11:00,
2013-08-20 08:42:00,75.0,57.0,30.11,North,355,2.0,3.0,53,-99.99,,,-99.99,129.699997,,2013-08-20 14:42:00,
2013-08-20 08:52:00,75.0,57.0,30.11,North,355,2.0,3.0,53,-99.99,,,-99.99,129.699997,,2013-08-20 14:52:00,
2013-08-20 09:02:00,75.0,57.0,30.11,North,355,2.0,3.0,53,-99.99,,,-99.99,129.699997,,2013-08-20 15:02:00,
2013-08-20 09:22:00,76.0,58.0,30.12,NNE,15,4.0,7.0,52,-99.99,,,-99.99,299.850006,,2013-08-20 15:22:00,
2013-08-20 09:43:00,78.0,56.0,30.12,NNE,18,4.0,9.0,47,-99.99,,,-99.99,297.760010,,2013-08-20 15:43:00,
2013-08-20 09:53:00,78.0,56.0,30.12,NNE,18,4.0,9.0,47,-99.99,,,-99.99,297.760010,,2013-08-20 15:53:00,
2013-08-20 10:04:00,78.0,56.0,30.12,NNE,18,4.0,9.0,47,-99.99,,,-99.99,297.760010,,2013-08-20 16:04:00,
2013-08-20 10:30:00,-999.0,-99.9,30.12,NW,320,2.0,5.0,44,-99.99,,,-99.99,347.970001,,2013-08-20 16:30:00,
2013-08-20 10:42:00,80.0,56.0,30.12,NW,320,2.0,5.0,44,-99.99,,,-99.99,347.970001,,2013-08-20 16:42:00,
2013-08-20 10:53:00,81.0,55.0,30.13,NW,320,2.0,5.0,41,-99.99,,,-99.99,471.399994,,2013-08-20 16:53:00,
2013-08-20 11:03:00,81.0,55.0,30.13,NW,320,2.0,5.0,41,-99.99,,,-99.99,471.399994,,2013-08-20 17:03:00,
2013-08-20 11:24:00,81.0,56.0,30.13,East,80,2.0,4.0,42,-99.99,,,-99.99,321.470001,,2013-08-20 17:24:00,
2013-08-20 11:52:00,81.0,56.0,30.13,ENE,78,5.0,9.0,42,-99.99,,,-99.99,406.549988,,2013-08-20 17:52:00,
2013-08-20 12:02:00,81.0,56.0,30.13,ENE,78,5.0,9.0,42,-99.99,,,-99.99,406.549988,,2013-08-20 18:02:00,
2013-08-20 12:12:00,81.0,56.0,30.13,ENE,78,5.0,9.0,42,-99.99,,,-99.99,406.549988,,2013-08-20 18:12:00,
2013-08-20 12:43:00,84.0,56.0,30.12,North,355,3.0,8.0,39,-99.99,,,-99.99,482.549988,,2013-08-20 18:43:00,
2013-08-20 12:52:00,85.0,55.0,30.12,NE,40,2.0,5.0,36,-99.99,,,-99.99,463.029999,,2013-08-20 18:52:00,
2013-08-20 13:01:00,85.0,55.0,30.12,NE,40,2.0,5.0,36,-99.99,,,-99.99,463.029999,,2013-08-20 19:01:00,
2013-08-20 13:22:00,86.0,55.0,30.11,West,278,2.0,6.0,34,-99.99,,,-99.99,849.349976,,2013-08-20 19:22:00,
2013-08-20 13:42:00,87.0,55.0,30.11,ENE,63,5.0,9.0,34,-99.99,,,-99.99,707.789978,,2013-08-20 19:42:00,
2013-08-20 13:53:00,87.0,55.0,30.11,ENE,63,5.0,9.0,34,-99.99,,,-99.99,707.789978,,2013-08-20 19:53:00,
2013-08-20 14:03:00,87.0,55.0,30.11,ENE,63,5.0,9.0,34,-99.99,,,-99.99,707.789978,,2013-08-20 20:03:00,
2013-08-20 14:22:00,86.0,54.0,30.10,East,95,5.0,9.0,33,-99.99,,,-99.99,417.700012,,2013-08-20 20:22:00,
2013-08-20 14:42:00,86.0,51.0,30.10,ESE,117,5.0,9.0,30,-99.99,,,-99.99,290.790009,,2013-08-20 20:42:00,
2013-08-20 15:22:00,86.0,50.0,30.09,ESE,107,4.0,7.0,29,-99.99,,,-99.99,211.990005,,2013-08-20 21:22:00,
2013-08-20 15:44:00,86.0,50.0,30.08,ESE,112,3.0,7.0,28,-99.99,,,-99.99,218.270004,,2013-08-20 21:44:00,
2013-08-20 16:42:00,89.0,52.0,30.04,ESE,115,7.0,14.0,28,-99.99,,,-99.99,627.599976,,2013-08-20 22:42:00,
2013-08-20 16:53:00,89.0,52.0,30.04,ESE,105,8.0,15.0,28,-99.99,,,-99.99,516.030029,,2013-08-20 22:53:00,
2013-08-20 17:03:00,89.0,52.0,30.04,ESE,105,8.0,15.0,28,-99.99,,,-99.99,516.030029,,2013-08-20 23:03:00,
2013-08-20 17:12:00,89.0,52.0,30.04,ESE,105,8.0,15.0,28,-99.99,,,-99.99,516.030029,,2013-08-20 23:12:00,
2013-08-20 17:42:00,89.0,51.0,30.03,SSE,164,6.0,12.0,27,-99.99,,,-99.99,384.230011,,2013-08-20 23:42:00,
2013-08-20 17:53:00,89.0,50.0,30.03,SE,142,5.0,10.0,26,-99.99,,,-99.99,230.119995,,2013-08-20 23:53:00,
2013-08-20 18:12:00,89.0,50.0,30.03,South,172,4.0,8.0,26,-99.99,,,-99.99,316.589996,,2013-08-21 00:12:00,
2013-08-20 18:22:00,89.0,50.0,30.03,South,172,4.0,8.0,26,-99.99,,,-99.99,316.589996,,2013-08-21 00:22:00,
2013-08-20 18:42:00,89.0,49.0,30.02,SSE,159,4.0,8.0,25,-99.99,,,-99.99,281.029999,,2013-08-21 00:42:00,
2013-08-20 18:52:00,89.0,49.0,30.02,SSE,159,4.0,8.0,25,-99.99,,,-99.99,281.029999,,2013-08-21 00:52:00,
2013-08-20 19:02:00,89.0,49.0,30.02,SSE,159,4.0,8.0,25,-99.99,,,-99.99,281.029999,,2013-08-21 01:02:00,
2013-08-20 19:42:00,86.0,51.0,30.03,SSW,199,1.0,3.0,30,-99.99,,,-99.99,7.670000,,2013-08-21 01:42:00,
2013-08-20 19:52:00,85.0,51.0,30.03,WNW,286,4.0,8.0,31,-99.99,,,-99.99,2.790000,,2013-08-21 01:52:00,
2013-08-20 20:02:00,85.0,51.0,30.03,WNW,286,4.0,8.0,31,-99.99,,,-99.99,2.790000,,2013-08-21 02:02:00,
2013-08-20 20:22:00,84.0,53.0,30.03,West,266,4.0,6.0,34,-99.99,,,-99.99,0.700000,,2013-08-21 02:22:00,
2013-08-20 20:42:00,82.0,54.0,30.05,WNW,295,14.0,22.0,38,-99.99,,,-99.99,0.000000,,2013-08-21 02:42:00,
2013-08-20 20:52:00,81.0,54.0,30.06,WNW,287,13.0,21.0,39,-99.99,,,-99.99,0.000000,,2013-08-21 02:52:00,
2013-08-20 21:02:00,81.0,54.0,30.06,WNW,287,13.0,21.0,39,-99.99,,,-99.99,0.000000,,2013-08-21 03:02:00,
2013-08-20 21:23:00,81.0,54.0,30.06,WNW,283,14.0,23.0,40,-99.99,,,-99.99,0.000000,,2013-08-21 03:23:00,
2013-08-20 21:44:00,80.0,55.0,30.06,WNW,286,12.0,20.0,43,-99.99,,,-99.99,0.000000,,2013-08-21 03:44:00,
2013-08-20 22:44:00,79.0,54.0,30.07,WNW,292,10.0,14.0,42,-99.99,,,-99.99,0.000000,,2013-08-21 04:44:00,
2013-08-20 23:13:00,79.0,54.0,30.07,WNW,288,8.0,13.0,42,-99.99,,,-99.99,0.000000,,2013-08-21 05:13:00,
2013-08-20 23:23:00,77.0,54.0,30.07,WNW,299,7.0,10.0,44,-99.99,,,-99.99,0.000000,,2013-08-21 05:23:00,
2013-08-20 23:43:00,76.0,54.0,30.07,WNW,285,5.0,7.0,47,-99.99,,,-99.99,0.000000,,2013-08-21 05:43:00,